x

Passage Island, Mi (pilm4) Weather Station

6:00pm - Fri 24th Oct 2014 All times are CDT. -5 hours from GMT.

  • Wind
    3mph, 5mph gusts
  • Air Temp 47°f
  • Sea Pressure 1007.4mb
  • Passage Island, Mi
  • Passage Island, Mi

More Historic Weather Station data

Upgrade to MSW Pro to gain access to the past 30 days of data for over 8000 Wavebouys and Weather Stations around the globe.

Join Pro

Comparision Forecast

View Surf forecast
   
Fri 10/24 6:00pm 3 5 mph 1007.4mb 47f
5:00pm 20 21 mph 1007.7mb 48f
4:00pm 18 20 mph 1008.5mb 47f
3:00pm 20 22 mph 1009.3mb 47f
2:00pm 18 21 mph 1010.4mb 46f
1:00pm 15 17 mph 1011.1mb 46f
12:00pm 11 13 mph 1012.3mb 44f
11:00am 13 14 mph 1013mb 44f
10:00am 15 17 mph 1013.6mb 44f
9:00am 15 17 mph 1013.8mb 44f
8:00am 20 22 mph 1014.1mb 45f
7:00am 15 17 mph 1014.3mb 45f
6:00am 11 13 mph 1014.7mb 46f
5:00am 17 20 mph 1015.2mb 46f
4:00am 14 15 mph 1015mb 46f
3:00am 11 13 mph 1015.3mb 46f
2:00am 10 13 mph 1015.3mb 46f
1:00am 13 14 mph 1015.4mb 46f
12:00am 10 11 mph 1015.5mb 46f
Thu 10/23 11:00pm 9 10 mph 1015.7mb 46f
10:00pm 9 10 mph 1015.8mb 46f
9:00pm 9 10 mph 1016mb 45f
8:00pm 10 11 mph 1016mb 45f
7:00pm 11 13 mph 1016.5mb 46f
6:00pm 10 11 mph 1016.4mb 45f
5:00pm 11 13 mph 1016.7mb 45f
4:00pm 14 15 mph 1016.8mb 45f
3:00pm 10
mph
1016.8mb 45f
2:00pm 9 10 mph 1017mb 45f
1:00pm 9 10 mph 1017.3mb 46f
12:00pm 14 16 mph 1017.8mb 45f
11:00am 17 18 mph 1018mb 45f
10:00am 17 18 mph 1018mb 45f
9:00am 11 13 mph 1018.2mb 45f
8:00am 14 16 mph 1018.7mb 45f
7:00am 17
mph
1019.1mb 45f
6:00am 17 21 mph 1019.7mb 44f
5:00am 17 18 mph 1019.9mb 45f
4:00am 20 22 mph 1020.3mb 44f
3:00am 22 24 mph 1020.6mb 46f
2:00am 18 21 mph 1020.9mb 46f
1:00am 21 22 mph 1021mb 45f
12:00am 23 25 mph 1021.1mb 46f
Wed 10/22 11:00pm 24 25 mph 1021.4mb 46f
10:00pm 26 29 mph 1021.9mb 46f
9:00pm 28 30 mph 1022.1mb 45f
8:00pm 25 26 mph 1022.9mb 45f
7:00pm 24 28 mph 1023.2mb 44f
6:00pm 25 29 mph 1023.7mb 44f
5:00pm 17 20 mph 1024.8mb 44f
4:00pm 22 24 mph 1025mb 43f
3:00pm 18 20 mph 1025.7mb 43f
2:00pm 16 17 mph 1026.5mb 44f
1:00pm 16 17 mph 1027.1mb 43f
12:00pm 14 15 mph 1028.2mb 43f
11:00am 15 17 mph 1028.4mb 43f
10:00am 18 20 mph 1028.2mb 42f
9:00am 14 15 mph 1028.5mb 43f
8:00am 20 22 mph 1028.5mb 43f
7:00am 21 22 mph 1028.3mb 42f
6:00am 16 17 mph 1028.2mb 42f
5:00am 15 16 mph 1028mb 42f
4:00am 24 26 mph 1027.8mb 41f
3:00am 18 20 mph 1028.2mb 41f
2:00am 20 21 mph 1028.1mb 41f
1:00am 20 22 mph 1028mb 40f
12:00am 16 17 mph 1028.2mb 40f
Tue 10/21 11:00pm 16 18 mph 1028.4mb 40f
10:00pm 16 18 mph 1028.3mb 39f
9:00pm 14 15 mph 1028.1mb 39f
8:00pm 13 14 mph 1027.7mb 38f
7:00pm 11 13 mph 1027.8mb 37f
6:00pm 10 13 mph 1027.9mb 37f
5:00pm 7 9 mph 1028.1mb 37f
4:00pm 11 14 mph 1028mb 37f
3:00pm 8 10 mph 1028.2mb 38f
2:00pm 9 10 mph 1028.4mb 38f
1:00pm 6 8 mph 1028.7mb 37f
12:00pm 9 10 mph 1029mb 38f
11:00am 10 13 mph 1028.7mb 38f
10:00am 10 11 mph 1028.4mb 38f
9:00am 13 14 mph 1027.9mb 38f
8:00am 13 15 mph 1027.3mb 39f
7:00am 8 10 mph 1026.7mb 38f
6:00am 10 11 mph 1026.2mb 38f
5:00am 8 13 mph 1025.6mb 38f
4:00am 7 11 mph 1025mb 38f
3:00am 9 13 mph 1024.8mb 38f
2:00am 9 15 mph 1024.1mb 39f
1:00am 10 14 mph 1023.9mb 39f